Time;durP1;ratioP1;P1;durP2;ratioP2;P2;SDS_P1;SDS_P2;PMS_P1;PMS_P2;Temp;Humidity;BMP_temperature;BMP_pressure;BME280_temperature;BME280_humidity;BME280_pressure;Samples;Min_cycle;Max_cycle;Signal;HPM_P1;HPM_P2
2023/10/27 00:00:02;;;;;;;0.50;0.50;;;;;;;9.24;100.00;94790.72;29395;225;63005;-90
2023/10/27 00:00:33;;;;;;;0.50;0.50;;;;;;;9.26;100.00;94789.25;29395;242;63009;-91
2023/10/27 00:01:05;;;;;;;0.50;0.50;;;;;;;9.27;100.00;94782.72;29395;270;63005;-90
2023/10/27 00:01:37;;;;;;;0.50;0.50;;;;;;;9.27;100.00;94785.44;29394;233;64009;-91
2023/10/27 00:02:08;;;;;;;0.50;0.50;;;;;;;9.27;100.00;94785.44;29394;228;64009;-93
2023/10/27 00:02:39;;;;;;;0.50;0.50;;;;;;;9.26;100.00;94789.25;29395;202;63009;-92
2023/10/27 00:03:11;;;;;;;0.50;0.50;;;;;;;9.27;100.00;94787.34;29395;241;63004;-90
2023/10/27 00:03:46;;;;;;;0.50;0.50;;;;;;;9.27;100.00;94790.06;29394;305;64013;-92
2023/10/27 00:04:18;;;;;;;0.50;0.50;;;;;;;9.26;100.00;94789.25;29395;206;63004;-90
2023/10/27 00:04:53;;;;;;;0.50;0.50;;;;;;;9.27;100.00;94790.84;29395;220;63008;-92
2023/10/27 00:05:26;;;;;;;0.50;0.50;;;;;;;9.26;100.00;94783.06;29395;227;63004;-92
2023/10/27 00:05:59;;;;;;;0.50;0.50;;;;;;;9.25;100.00;94784.97;29395;219;63009;-90
2023/10/27 00:06:32;;;;;;;0.50;0.50;;;;;;;9.24;100.00;94786.09;29395;211;63005;-91
2023/10/27 00:07:04;;;;;;;0.50;0.50;;;;;;;9.22;100.00;94776.75;29395;218;63009;-91
2023/10/27 00:08:43;;;;;;;0.50;0.50;;;;;;;9.15;100.00;94782.69;88179;216;64005;-92
2023/10/27 00:09:23;;;;;;;0.50;0.50;;;;;;;9.16;100.00;94786.97;29394;211;64009;-91
2023/10/27 00:09:54;;;;;;;0.50;0.50;;;;;;;9.16;100.00;94781.56;29395;265;63004;-91
2023/10/27 00:10:28;;;;;;;0.50;0.50;;;;;;;9.15;100.00;94781.91;29395;206;63009;-91
2023/10/27 00:11:06;;;;;;;0.50;0.50;;;;;;;9.15;100.00;94782.69;29395;263;63004;-92
2023/10/27 00:11:37;;;;;;;0.50;0.50;;;;;;;9.13;100.00;94779.53;29395;232;63009;-90
2023/10/27 00:12:10;;;;;;;0.50;0.50;;;;;;;9.12;100.00;94785.28;29395;222;63009;-92
2023/10/27 00:12:41;;;;;;;0.50;0.50;;;;;;;9.12;100.00;94779.87;29394;205;64009;-90
2023/10/27 00:13:12;;;;;;;0.50;0.50;;;;;;;9.11;100.00;94781.78;29395;197;63005;-91
2023/10/27 00:13:45;;;;;;;0.50;0.50;;;;;;;9.09;100.00;94781.31;29394;267;64013;-91
2023/10/27 00:14:17;;;;;;;0.50;0.50;;;;;;;9.10;100.00;94780.19;29394;202;64009;-91
2023/10/27 00:14:48;;;;;;;0.50;0.50;;;;;;;9.10;100.00;94788.31;29395;211;63009;-92
2023/10/27 00:15:20;;;;;;;0.50;0.50;;;;;;;9.09;100.00;94778.63;29395;217;63005;-91
2023/10/27 00:15:52;;;;;;;0.50;0.50;;;;;;;9.07;100.00;94776.25;29395;298;63009;-92
2023/10/27 00:16:24;;;;;;;0.50;0.50;;;;;;;9.08;100.00;94783.22;29395;196;63004;-90
2023/10/27 00:16:55;;;;;;;0.50;0.50;;;;;;;9.10;100.00;94784.81;29395;212;63025;-91
2023/10/27 00:17:27;;;;;;;0.50;0.50;;;;;;;9.15;100.00;94787.31;29395;235;63004;-91
2023/10/27 00:17:59;;;;;;;0.60;0.60;;;;;;;9.15;100.00;94780.00;29395;234;63026;-91
2023/10/27 00:18:34;;;;;;;0.50;0.50;;;;;;;9.17;100.00;94780.44;29394;342;64008;-91
2023/10/27 00:19:26;;;;;;;0.50;0.50;;;;;;;9.17;100.00;94777.75;29395;214;63009;-90
2023/10/27 00:20:06;;;;;;;0.50;0.50;;;;;;;9.12;100.00;94777.94;29394;236;64009;-92
2023/10/27 00:20:40;;;;;;;0.50;0.50;;;;;;;9.11;100.00;94776.38;29395;215;63009;-90
2023/10/27 00:21:12;;;;;;;0.50;0.50;;;;;;;9.09;100.00;94778.63;29395;226;63005;-90
2023/10/27 00:21:43;;;;;;;0.50;0.50;;;;;;;9.06;100.00;94774.66;29395;219;63009;-92
2023/10/27 00:22:15;;;;;;;0.50;0.50;;;;;;;9.10;100.00;94780.19;29395;234;63005;-91
2023/10/27 00:23:51;;;;;;;0.56;0.56;;;;;;;9.13;100.00;94779.53;88181;207;64004;-91
2023/10/27 00:24:22;;;;;;;0.50;0.50;;;;;;;9.11;100.00;94776.38;29394;216;64009;-89
2023/10/27 00:24:54;;;;;;;0.50;0.50;;;;;;;9.11;100.00;94781.00;29395;220;63005;-93
2023/10/27 00:25:25;;;;;;;0.50;0.50;;;;;;;9.07;100.00;94775.44;29395;223;63009;-91
2023/10/27 00:25:58;;;;;;;0.50;0.50;;;;;;;9.06;100.00;94776.56;29395;211;63005;-90
2023/10/27 00:26:30;;;;;;;0.50;0.50;;;;;;;9.05;100.00;94778.50;29395;202;63009;-93
2023/10/27 00:27:01;;;;;;;0.50;0.50;;;;;;;9.05;100.00;94777.69;29394;234;64009;-89
2023/10/27 00:27:34;;;;;;;0.50;0.50;;;;;;;9.05;100.00;94777.69;29395;218;63009;-90
2023/10/27 00:28:05;;;;;;;0.50;0.50;;;;;;;9.03;100.00;94780.72;29395;209;63004;-91
2023/10/27 00:28:38;;;;;;;0.50;0.50;;;;;;;9.01;100.00;94774.06;29395;257;63009;-90
2023/10/27 00:29:09;;;;;;;0.50;0.50;;;;;;;9.00;100.00;94778.72;29395;267;63004;-89
2023/10/27 00:29:40;;;;;;;0.50;0.50;;;;;;;8.99;100.00;94776.34;29395;215;63009;-92
2023/10/27 00:30:12;;;;;;;0.50;0.50;;;;;;;9.00;100.00;94775.22;29395;222;63004;-91
2023/10/27 00:30:45;;;;;;;0.50;0.50;;;;;;;9.01;100.00;94765.97;29395;197;63008;-92
2023/10/27 00:31:16;;;;;;;0.50;0.50;;;;;;;8.98;100.00;94772.84;29394;247;64009;-91
2023/10/27 00:31:47;;;;;;;0.50;0.50;;;;;;;8.99;100.00;94773.66;29395;218;63009;-90
2023/10/27 00:32:20;;;;;;;0.50;0.50;;;;;;;8.99;100.00;94779.84;29395;275;63005;-92
2023/10/27 00:32:51;;;;;;;0.50;0.50;;;;;;;9.01;100.00;94771.38;29395;199;63009;-92
2023/10/27 00:33:24;;;;;;;0.50;0.50;;;;;;;9.04;100.00;94776.12;29395;380;63005;-92
2023/10/27 00:33:57;;;;;;;0.50;0.50;;;;;;;9.02;100.00;94772.94;29395;218;63009;-91
2023/10/27 00:34:29;;;;;;;0.50;0.50;;;;;;;9.00;100.00;94780.63;29395;246;63004;-93
2023/10/27 00:35:00;;;;;;;0.50;0.50;;;;;;;8.97;100.00;94781.31;29395;197;63014;-92
2023/10/27 00:35:34;;;;;;;0.50;0.50;;;;;;;8.94;100.00;94776.56;29395;219;63004;-92
2023/10/27 00:36:08;;;;;;;0.50;0.50;;;;;;;8.96;100.00;94774.31;29395;208;63009;-91
2023/10/27 00:36:39;;;;;;;0.50;0.50;;;;;;;8.96;100.00;94779.72;29394;242;64008;-91
2023/10/27 00:37:11;;;;;;;0.50;0.50;;;;;;;8.95;100.00;94772.72;29395;215;63016;-91
2023/10/27 00:37:45;;;;;;;0.50;0.50;;;;;;;8.95;100.00;94778.16;29395;267;63004;-92
2023/10/27 00:39:25;;;;;;;0.53;0.53;;;;;;;8.91;100.00;94780.72;88181;239;64004;-93
2023/10/27 00:39:57;;;;;;;0.50;0.50;;;;;;;8.91;100.00;94777.22;29394;225;64009;-90
2023/10/27 00:40:29;;;;;;;0.50;0.50;;;;;;;8.90;100.00;94776.44;29395;212;63005;-92
2023/10/27 00:41:00;;;;;;;0.50;0.50;;;;;;;8.90;100.00;94775.66;29395;260;63009;-90
2023/10/27 00:41:32;;;;;;;0.50;0.50;;;;;;;8.90;100.00;94778.34;29395;236;63005;-90
2023/10/27 00:42:09;;;;;;;0.50;0.50;;;;;;;8.89;100.00;94774.84;29394;261;64013;-91
2023/10/27 00:42:43;;;;;;;0.50;0.50;;;;;;;8.90;100.00;94776.44;29395;230;63005;-89
2023/10/27 00:43:16;;;;;;;0.50;0.50;;;;;;;8.94;100.00;94771.94;29395;220;63009;-91
2023/10/27 00:43:47;;;;;;;0.50;0.50;;;;;;;9.02;100.00;94778.38;29395;242;63004;-90
2023/10/27 00:44:19;;;;;;;0.50;0.50;;;;;;;9.03;100.00;94779.94;29395;202;63009;-91
2023/10/27 00:44:50;;;;;;;0.50;0.50;;;;;;;9.02;100.00;94783.78;29395;205;63010;-92
2023/10/27 00:45:23;;;;;;;0.50;0.50;;;;;;;9.01;100.00;94774.06;29395;228;63009;-91
2023/10/27 00:46:00;;;;;;;0.50;0.50;;;;;;;8.99;100.00;94779.84;29395;199;63012;-91
2023/10/27 00:46:36;;;;;;;0.50;0.50;;;;;;;8.96;100.00;94780.50;29417;312;63009;-89
2023/10/27 00:47:09;;;;;;;0.50;0.50;;;;;;;8.97;100.00;94775.91;29394;218;64009;-92
2023/10/27 00:47:40;;;;;;;0.50;0.50;;;;;;;8.97;100.00;94775.91;29395;229;63009;-90
2023/10/27 00:48:12;;;;;;;0.60;0.60;;;;;;;8.95;100.00;94773.53;29395;202;63005;-90
2023/10/27 00:48:46;;;;;;;0.50;0.50;;;;;;;8.97;100.00;94768.56;29395;238;63009;-90
2023/10/27 00:49:31;;;;;;;0.50;0.50;;;;;;;9.05;100.00;94773.06;29395;245;63005;-90
2023/10/27 00:50:10;;;;;;;0.50;0.50;;;;;;;9.03;100.00;94769.12;29395;197;63009;-90
2023/10/27 00:50:45;;;;;;;0.50;0.50;;;;;;;8.99;100.00;94768.25;29395;222;63004;-90
2023/10/27 00:51:19;;;;;;;0.50;0.50;;;;;;;8.96;100.00;94763.50;29395;218;63009;-91
2023/10/27 00:51:56;;;;;;;0.50;0.50;;;;;;;8.95;100.00;94772.72;29395;197;63004;-91
2023/10/27 00:52:34;;;;;;;0.50;0.50;;;;;;;8.96;100.00;94766.19;29394;252;64013;-90
2023/10/27 00:53:07;;;;;;;0.50;0.50;;;;;;;8.96;100.00;94769.69;29395;246;63004;-92
2023/10/27 00:54:49;;;;;;;0.50;0.50;;;;;;;8.90;100.00;94770.22;87956;241;133000;-66
2023/10/27 00:55:21;;;;;;;0.50;0.50;;;;;;;8.89;100.00;94774.84;29394;202;64009;-67
2023/10/27 00:55:54;;;;;;;0.50;0.50;;;;;;;8.90;100.00;94772.94;29395;204;63005;-67
2023/10/27 00:56:28;;;;;;;0.50;0.50;;;;;;;8.91;100.00;94779.94;29395;214;63009;-68
2023/10/27 00:56:59;;;;;;;0.60;0.60;;;;;;;8.89;100.00;94774.84;29395;199;63004;-67
2023/10/27 00:57:33;;;;;;;0.50;0.50;;;;;;;8.90;100.00;94781.06;29394;202;64006;-66
2023/10/27 00:58:06;;;;;;;0.50;0.50;;;;;;;8.88;100.00;94780.59;29395;216;63004;-67
2023/10/27 00:58:38;;;;;;;0.50;0.50;;;;;;;8.86;100.00;94769.31;29395;211;63009;-66
2023/10/27 00:59:11;;;;;;;0.50;0.50;;;;;;;8.86;100.00;94772.03;29395;410;63004;-60
2023/10/27 00:59:43;;;;;;;0.50;0.50;;;;;;;8.87;100.00;94774.41;29395;234;63008;-66
2023/10/27 01:00:17;;;;;;;0.50;0.50;;;;;;;8.89;100.00;94763.25;29395;242;63005;-65
2023/10/27 01:00:50;;;;;;;0.50;0.50;;;;;;;8.91;100.00;94761.00;29395;199;63009;-66
2023/10/27 01:01:21;;;;;;;0.50;0.50;;;;;;;8.90;100.00;94762.13;29395;207;63010;-66
2023/10/27 01:01:53;;;;;;;0.50;0.50;;;;;;;8.90;100.00;94759.41;29395;207;63009;-66
2023/10/27 01:02:26;;;;;;;0.50;0.50;;;;;;;8.87;100.00;94760.88;29395;202;63005;-66
2023/10/27 01:03:01;;;;;;;0.50;0.50;;;;;;;8.86;100.00;94758.50;29394;222;64013;-70
2023/10/27 01:03:33;;;;;;;0.50;0.50;;;;;;;8.86;100.00;94759.28;29395;220;63008;-66
2023/10/27 01:04:05;;;;;;;0.50;0.50;;;;;;;8.88;100.00;94754.34;29395;231;63009;-65
2023/10/27 01:04:38;;;;;;;0.50;0.50;;;;;;;8.90;100.00;94752.09;29395;229;63004;-61
2023/10/27 01:05:09;;;;;;;0.50;0.50;;;;;;;8.92;100.00;94752.56;29395;239;63004;-66
2023/10/27 01:05:40;;;;;;;0.50;0.50;;;;;;;8.93;100.00;94758.75;29395;226;63004;-66
2023/10/27 01:06:12;;;;;;;0.50;0.50;;;;;;;8.95;100.00;94756.50;29395;231;63009;-66
2023/10/27 01:06:43;;;;;;;0.50;0.50;;;;;;;8.95;100.00;94760.00;29395;266;63004;-68
2023/10/27 01:07:15;;;;;;;0.50;0.50;;;;;;;8.93;100.00;94753.34;29394;221;64008;-68
2023/10/27 01:07:47;;;;;;;0.50;0.50;;;;;;;8.90;100.00;94754.78;29395;199;63005;-67
2023/10/27 01:08:20;;;;;;;0.50;0.50;;;;;;;8.93;100.00;94753.34;29394;202;64014;-66
2023/10/27 01:08:52;;;;;;;0.50;0.50;;;;;;;8.93;100.00;94753.34;29395;333;63005;-67
2023/10/27 01:09:24;;;;;;;0.50;0.50;;;;;;;8.92;100.00;94754.47;29395;231;63009;-68
2023/10/27 01:09:55;;;;;;;0.50;0.50;;;;;;;8.90;100.00;94754.00;29395;202;63005;-66
2023/10/27 01:10:27;;;;;;;0.50;0.50;;;;;;;8.91;100.00;94755.59;29395;207;63009;-65
2023/10/27 01:10:58;;;;;;;0.50;0.50;;;;;;;8.90;100.00;94754.00;29395;201;63005;-68
2023/10/27 01:11:30;;;;;;;0.50;0.50;;;;;;;8.89;100.00;94753.22;29395;220;63009;-67
2023/10/27 01:12:04;;;;;;;0.50;0.50;;;;;;;8.89;100.00;94755.91;29395;224;63004;-67
2023/10/27 01:12:35;;;;;;;0.50;0.50;;;;;;;8.87;100.00;94757.37;29395;218;63009;-66
2023/10/27 01:13:09;;;;;;;0.50;0.50;;;;;;;8.84;100.00;94749.94;29395;222;63004;-68
2023/10/27 01:13:41;;;;;;;0.50;0.50;;;;;;;8.84;100.00;94761.53;29394;265;64013;-65
2023/10/27 01:14:13;;;;;;;0.50;0.50;;;;;;;8.85;100.00;94762.31;29395;199;63004;-66
2023/10/27 01:14:44;;;;;;;0.50;0.50;;;;;;;8.82;100.00;94752.16;29395;230;63008;-66
2023/10/27 01:15:16;;;;;;;0.50;0.50;;;;;;;8.81;100.00;94756.78;29395;211;63005;-67
2023/10/27 01:15:48;;;;;;;0.50;0.50;;;;;;;8.79;100.00;94753.62;29395;202;63009;-68
2023/10/27 01:16:20;;;;;;;0.50;0.50;;;;;;;8.79;100.00;94753.62;29395;264;63015;-67
2023/10/27 01:16:56;;;;;;;0.50;0.50;;;;;;;8.78;100.00;94746.62;29395;224;63009;-67
2023/10/27 01:17:28;;;;;;;0.50;0.50;;;;;;;8.79;100.00;94753.62;29395;272;63017;-68
2023/10/27 01:18:00;;;;;;;0.50;0.50;;;;;;;8.78;100.00;94757.44;29395;238;63009;-68
2023/10/27 01:18:31;;;;;;;0.50;0.50;;;;;;;8.77;100.00;94753.16;29395;256;63005;-68
2023/10/27 01:19:02;;;;;;;0.50;0.50;;;;;;;8.77;100.00;94755.06;29394;198;64013;-70
2023/10/27 01:19:36;;;;;;;0.50;0.50;;;;;;;8.76;100.00;94748.09;29395;240;63004;-68
2023/10/27 01:20:08;;;;;;;0.50;0.50;;;;;;;8.79;100.00;94744.72;29395;205;63021;-68
2023/10/27 01:20:39;;;;;;;0.50;0.50;;;;;;;8.79;100.00;94742.03;29395;222;63004;-66
2023/10/27 01:21:11;;;;;;;0.50;0.50;;;;;;;8.78;100.00;94749.34;29395;226;63009;-65
2023/10/27 01:21:42;;;;;;;0.50;0.50;;;;;;;8.78;100.00;94751.25;29395;232;63004;-69
2023/10/27 01:22:15;;;;;;;0.50;0.50;;;;;;;8.77;100.00;94744.25;29395;281;63008;-66
2023/10/27 01:22:50;;;;;;;0.50;0.50;;;;;;;8.79;100.00;94742.03;29395;214;63005;-68
2023/10/27 01:23:21;;;;;;;0.50;0.50;;;;;;;8.80;100.00;94749.81;29395;235;63009;-68
2023/10/27 01:23:56;;;;;;;0.50;0.50;;;;;;;8.79;100.00;94736.63;29395;214;63017;-67
2023/10/27 01:24:27;;;;;;;0.50;0.50;;;;;;;8.77;100.00;94744.25;29394;198;64013;-68
2023/10/27 01:25:00;;;;;;;0.50;0.50;;;;;;;8.77;100.00;94744.25;29395;230;63005;-68
2023/10/27 01:25:34;;;;;;;0.50;0.50;;;;;;;8.78;100.00;94743.13;29395;249;63009;-69
2023/10/27 01:26:07;;;;;;;0.50;0.50;;;;;;;8.78;100.00;94748.56;29395;309;63005;-68
2023/10/27 01:26:38;;;;;;;0.50;0.50;;;;;;;8.76;100.00;94743.47;29395;258;63009;-68
2023/10/27 01:27:11;;;;;;;0.50;0.50;;;;;;;8.76;100.00;94742.69;29395;230;63004;-68
2023/10/27 01:27:43;;;;;;;0.50;0.50;;;;;;;8.74;100.00;94743.81;29395;236;63009;-67
2023/10/27 01:28:14;;;;;;;0.50;0.50;;;;;;;8.72;100.00;94748.75;29395;439;63004;-67
2023/10/27 01:28:46;;;;;;;0.50;0.50;;;;;;;8.70;100.00;94740.19;29395;204;63009;-61
2023/10/27 01:29:22;;;;;;;0.50;0.50;;;;;;;8.69;100.00;94733.19;29395;221;63004;-66
2023/10/27 01:29:54;;;;;;;0.50;0.50;;;;;;;8.69;100.00;94738.59;29394;215;64013;-60
2023/10/27 01:30:27;;;;;;;0.50;0.50;;;;;;;8.68;100.00;94736.22;29395;204;63005;-67
2023/10/27 01:30:58;;;;;;;0.50;0.50;;;;;;;8.69;100.00;94738.59;29394;209;64009;-67
2023/10/27 01:31:30;;;;;;;0.50;0.50;;;;;;;8.69;100.00;94738.59;29395;266;63005;-68
2023/10/27 01:32:02;;;;;;;0.50;0.50;;;;;;;8.70;100.00;94734.78;29395;232;63009;-66
2023/10/27 01:32:35;;;;;;;0.50;0.50;;;;;;;8.73;100.00;94736.03;29395;215;63005;-67
2023/10/27 01:33:06;;;;;;;0.50;0.50;;;;;;;8.74;100.00;94730.28;29395;266;63009;-68
2023/10/27 01:33:38;;;;;;;0.50;0.50;;;;;;;8.74;100.00;94730.28;29395;232;63005;-60
2023/10/27 01:34:10;;;;;;;0.50;0.50;;;;;;;8.74;100.00;94730.28;29394;197;64013;-67
2023/10/27 01:34:41;;;;;;;0.50;0.50;;;;;;;8.72;100.00;94727.13;29394;197;64004;-68
2023/10/27 01:35:12;;;;;;;0.50;0.50;;;;;;;8.72;100.00;94735.22;29395;245;63009;-59
2023/10/27 01:35:43;;;;;;;0.50;0.50;;;;;;;8.72;100.00;94729.81;29395;238;63014;-68
2023/10/27 01:36:15;;;;;;;0.50;0.50;;;;;;;8.72;100.00;94731.75;29394;240;64013;-66
2023/10/27 01:36:46;;;;;;;0.50;0.50;;;;;;;8.71;100.00;94733.66;29395;206;63004;-68
2023/10/27 01:37:20;;;;;;;0.50;0.50;;;;;;;8.70;100.00;94733.97;29395;204;63008;-68
2023/10/27 01:37:51;;;;;;;0.50;0.50;;;;;;;8.68;100.00;94737.03;29395;222;63005;-69
2023/10/27 01:38:23;;;;;;;0.50;0.50;;;;;;;8.68;100.00;94734.31;29395;205;63009;-69
2023/10/27 01:38:55;;;;;;;0.50;0.50;;;;;;;8.68;100.00;94734.31;29395;236;63005;-65
2023/10/27 01:39:26;;;;;;;0.50;0.50;;;;;;;8.69;100.00;94738.59;29394;202;64013;-68
2023/10/27 01:40:02;;;;;;;0.50;0.50;;;;;;;8.70;100.00;94733.97;29395;265;63005;-68
2023/10/27 01:40:33;;;;;;;0.50;0.50;;;;;;;8.69;100.00;94735.91;29394;254;64009;-67
2023/10/27 01:41:05;;;;;;;0.50;0.50;;;;;;;8.68;100.00;94728.13;29395;246;63005;-68
2023/10/27 01:41:36;;;;;;;0.50;0.50;;;;;;;8.67;100.00;94724.63;29395;225;63009;-67
2023/10/27 01:42:07;;;;;;;0.50;0.50;;;;;;;8.67;100.00;94727.31;29395;202;63004;-66
2023/10/27 01:42:39;;;;;;;0.50;0.50;;;;;;;8.66;100.00;94733.84;29395;215;63009;-68
2023/10/27 01:43:10;;;;;;;0.50;0.50;;;;;;;8.63;100.00;94734.53;29395;212;63004;-66
2023/10/27 01:43:41;;;;;;;0.50;0.50;;;;;;;8.63;100.00;94729.13;29395;212;63008;-68
2023/10/27 01:44:12;;;;;;;0.50;0.50;;;;;;;8.61;100.00;94731.38;29394;254;64008;-67
2023/10/27 01:44:47;;;;;;;0.50;0.50;;;;;;;8.61;100.00;94725.19;29395;209;63008;-67
2023/10/27 01:45:18;;;;;;;0.50;0.50;;;;;;;8.61;100.00;94725.19;29395;220;63005;-66
2023/10/27 01:45:53;;;;;;;0.50;0.50;;;;;;;8.59;100.00;94722.81;29394;202;64014;-68
2023/10/27 01:46:25;;;;;;;0.50;0.50;;;;;;;8.60;100.00;94729.00;29395;199;63005;-67
2023/10/27 01:46:56;;;;;;;0.50;0.50;;;;;;;8.59;100.00;94722.81;29395;240;63018;-67
2023/10/27 01:47:28;;;;;;;0.50;0.50;;;;;;;8.54;100.00;94717.63;29395;273;63005;-67
2023/10/27 01:47:59;;;;;;;0.50;0.50;;;;;;;8.58;100.00;94715.81;29395;239;63009;-67
2023/10/27 01:48:32;;;;;;;0.50;0.50;;;;;;;8.59;100.00;94722.03;29395;290;63005;-67
2023/10/27 01:49:03;;;;;;;0.50;0.50;;;;;;;8.57;100.00;94727.75;29395;237;63009;-69
2023/10/27 01:49:35;;;;;;;0.50;0.50;;;;;;;8.57;100.00;94722.34;29395;203;63004;-60
2023/10/27 01:50:11;;;;;;;0.50;0.50;;;;;;;8.58;100.00;94723.94;29395;261;63009;-68
2023/10/27 01:50:42;;;;;;;0.50;0.50;;;;;;;8.59;100.00;94724.72;29395;230;63004;-67
2023/10/27 01:51:17;;;;;;;0.50;0.50;;;;;;;8.58;100.00;94721.22;29394;230;64013;-67
2023/10/27 01:51:48;;;;;;;0.50;0.50;;;;;;;8.58;100.00;94720.44;29394;256;64008;-69
2023/10/27 01:52:20;;;;;;;0.50;0.50;;;;;;;8.59;100.00;94730.94;29395;289;63024;-67
2023/10/27 01:52:52;;;;;;;0.50;0.50;;;;;;;8.59;100.00;94727.44;29395;258;63005;-67
2023/10/27 01:53:23;;;;;;;0.50;0.50;;;;;;;8.59;100.00;94725.53;29395;209;63009;-67
2023/10/27 01:53:54;;;;;;;0.50;0.50;;;;;;;8.60;100.00;94723.59;29395;244;63005;-68
2023/10/27 01:54:26;;;;;;;0.50;0.50;;;;;;;8.60;100.00;94726.31;29395;197;63009;-67
2023/10/27 01:54:57;;;;;;;0.50;0.50;;;;;;;8.62;100.00;94724.06;29394;199;64009;-66
2023/10/27 01:56:34;;;;;;;0.50;0.50;;;;;;;8.64;100.00;94719.91;88182;219;64004;-91
2023/10/27 01:57:06;;;;;;;0.50;0.50;;;;;;;8.64;100.00;94711.81;29394;248;64009;-89
2023/10/27 01:57:37;;;;;;;0.50;0.50;;;;;;;8.66;100.00;94716.88;29395;252;63005;-91
2023/10/27 01:58:09;;;;;;;0.50;0.50;;;;;;;8.66;100.00;94720.34;29395;250;63009;-91
2023/10/27 01:58:44;;;;;;;0.50;0.50;;;;;;;8.66;100.00;94717.63;29395;234;63005;-91
2023/10/27 01:59:17;;;;;;;0.50;0.50;;;;;;;8.66;100.00;94714.94;29395;268;63023;-91
2023/10/27 01:59:48;;;;;;;0.57;0.57;;;;;;;8.67;100.00;94713.03;29395;211;63005;-91
2023/10/27 02:00:20;;;;;;;0.50;0.50;;;;;;;8.67;100.00;94719.22;29394;219;64013;-90
2023/10/27 02:00:51;;;;;;;0.50;0.50;;;;;;;8.67;100.00;94713.81;29395;249;63004;-90
2023/10/27 02:01:30;;;;;;;0.60;0.60;;;;;;;8.67;100.00;94719.22;29395;209;63009;-90
2023/10/27 02:02:04;;;;;;;0.50;0.50;;;;;;;8.67;100.00;94719.22;29395;223;63004;-91
2023/10/27 02:02:43;;;;;;;0.50;0.50;;;;;;;8.68;100.00;94720.00;29395;243;63009;-94
2023/10/27 02:03:16;;;;;;;0.60;0.60;;;;;;;8.67;100.00;94713.81;29395;218;63004;-91
2023/10/27 02:03:53;;;;;;;0.50;0.50;;;;;;;8.70;100.00;94718.56;29395;216;63009;-92
2023/10/27 02:04:25;;;;;;;0.50;0.50;;;;;;;8.72;100.00;94721.72;29395;263;63005;-90
2023/10/27 02:05:09;;;;;;;0.50;0.50;;;;;;;8.71;100.00;94722.03;29395;219;63009;-90
2023/10/27 02:05:49;;;;;;;0.50;0.50;;;;;;;8.69;100.00;94711.56;29394;230;64009;-91
2023/10/27 02:06:26;;;;;;;0.85;0.85;;;;;;;8.72;100.00;94719.00;29395;228;63009;-92
2023/10/27 02:07:07;;;;;;;0.50;0.50;;;;;;;8.73;100.00;94712.47;29395;238;63005;-92
2023/10/27 02:07:39;;;;;;;0.50;0.50;;;;;;;8.73;100.00;94714.41;29395;262;63009;-91
2023/10/27 02:08:10;;;;;;;0.50;0.50;;;;;;;8.72;100.00;94707.41;29394;214;64004;-91
2023/10/27 02:08:42;;;;;;;0.50;0.50;;;;;;;8.70;100.00;94713.16;29395;212;63009;-91
2023/10/27 02:09:14;;;;;;;0.50;0.50;;;;;;;8.67;100.00;94703.00;29395;203;63004;-91
2023/10/27 02:09:46;;;;;;;0.50;0.50;;;;;;;8.65;100.00;94702.56;29395;219;63009;-91
2023/10/27 02:10:18;;;;;;;0.50;0.50;;;;;;;8.70;100.00;94705.03;29395;255;63004;-91
2023/10/27 02:11:55;;;;;;;0.50;0.50;;;;;;;8.67;100.00;94703.00;88181;196;64004;-92
2023/10/27 02:12:27;;;;;;;0.50;0.50;;;;;;;8.65;100.00;94710.69;29394;221;64009;-92
2023/10/27 02:12:58;;;;;;;0.50;0.50;;;;;;;8.66;100.00;94716.88;29395;206;63005;-89
2023/10/27 02:13:29;;;;;;;0.50;0.50;;;;;;;8.65;100.00;94705.28;29395;202;63009;-91
2023/10/27 02:14:02;;;;;;;0.50;0.50;;;;;;;8.67;100.00;94713.81;29395;202;63009;-90
2023/10/27 02:14:34;;;;;;;0.50;0.50;;;;;;;8.67;100.00;94707.62;29395;219;63009;-90
2023/10/27 02:15:08;;;;;;;0.50;0.50;;;;;;;8.66;100.00;94716.88;29395;218;63004;-90
2023/10/27 02:15:40;;;;;;;0.50;0.50;;;;;;;8.68;100.00;94709.19;29395;208;63009;-91
2023/10/27 02:16:11;;;;;;;0.50;0.50;;;;;;;8.70;100.00;94718.56;29394;310;64009;-91
2023/10/27 02:16:42;;;;;;;0.50;0.50;;;;;;;8.71;100.00;94722.84;29395;218;63008;-92
2023/10/27 02:17:14;;;;;;;0.50;0.50;;;;;;;8.69;100.00;94711.56;29395;221;63005;-91
2023/10/27 02:17:48;;;;;;;0.50;0.50;;;;;;;8.67;100.00;94711.09;29395;238;63009;-90
2023/10/27 02:18:20;;;;;;;0.50;0.50;;;;;;;8.66;100.00;94706.06;29395;202;63005;-91
2023/10/27 02:18:51;;;;;;;0.50;0.50;;;;;;;8.68;100.00;94709.19;29395;214;63020;-91
2023/10/27 02:19:22;;;;;;;0.50;0.50;;;;;;;8.72;100.00;94710.91;29395;238;63005;-91
2023/10/27 02:19:56;;;;;;;0.50;0.50;;;;;;;8.71;100.00;94703.13;29395;277;63009;-92
2023/10/27 02:20:36;;;;;;;0.50;0.50;;;;;;;8.69;100.00;94705.38;29395;247;63005;-92
2023/10/27 02:21:07;;;;;;;0.50;0.50;;;;;;;8.69;100.00;94703.47;29395;406;63009;-90
2023/10/27 02:21:39;;;;;;;0.50;0.50;;;;;;;8.72;100.00;94704.69;29394;235;64009;-89
2023/10/27 02:22:12;;;;;;;0.50;0.50;;;;;;;8.73;100.00;94706.28;29395;216;63009;-89
2023/10/27 02:22:44;;;;;;;0.50;0.50;;;;;;;8.73;100.00;94707.06;29395;220;63004;-92
2023/10/27 02:23:15;;;;;;;0.50;0.50;;;;;;;8.74;100.00;94700.53;29394;223;64013;-90
2023/10/27 02:23:47;;;;;;;0.50;0.50;;;;;;;8.73;100.00;94701.66;29395;218;63017;-91
2023/10/27 02:24:18;;;;;;;0.50;0.50;;;;;;;8.72;100.00;94702.00;29395;197;63008;-93
2023/10/27 02:24:49;;;;;;;0.50;0.50;;;;;;;8.73;100.00;94706.28;29395;196;63005;-90
2023/10/27 02:25:21;;;;;;;0.50;0.50;;;;;;;8.76;100.00;94704.81;29395;246;63009;-90
2023/10/27 02:25:54;;;;;;;0.50;0.50;;;;;;;8.75;100.00;94704.03;29395;380;63005;-91
2023/10/27 02:27:38;;;;;;;0.50;0.50;;;;;;;8.64;100.00;94706.41;88181;205;64005;-90
2023/10/27 02:28:09;;;;;;;0.50;0.50;;;;;;;8.63;100.00;94699.41;29394;204;64008;-92
2023/10/27 02:28:40;;;;;;;0.50;0.50;;;;;;;8.62;100.00;94700.53;29394;233;64009;-90
2023/10/27 02:29:12;;;;;;;0.50;0.50;;;;;;;8.61;100.00;94696.25;29395;203;63009;-90
2023/10/27 02:29:43;;;;;;;0.50;0.50;;;;;;;8.62;100.00;94700.53;29395;236;63005;-90
2023/10/27 02:30:14;;;;;;;0.50;0.50;;;;;;;8.64;100.00;94698.28;29395;208;63009;-89
2023/10/27 02:30:46;;;;;;;0.50;0.50;;;;;;;8.66;100.00;94700.66;29395;199;63005;-90
2023/10/27 02:31:18;;;;;;;0.50;0.50;;;;;;;8.64;100.00;94700.19;29395;226;63009;-93
2023/10/27 02:31:49;;;;;;;0.50;0.50;;;;;;;8.62;100.00;94697.03;29395;270;63005;-92
2023/10/27 02:32:21;;;;;;;0.50;0.50;;;;;;;8.58;100.00;94699.59;29394;202;64013;-92
2023/10/27 02:32:52;;;;;;;0.50;0.50;;;;;;;8.58;100.00;94698.81;29395;216;63004;-89
2023/10/27 02:33:24;;;;;;;0.50;0.50;;;;;;;8.58;100.00;94702.31;29395;242;63009;-90
2023/10/27 02:33:55;;;;;;;0.50;0.50;;;;;;;8.58;100.00;94705.00;29395;202;63004;-92
2023/10/27 02:34:26;;;;;;;0.50;0.50;;;;;;;8.60;100.00;94704.69;29395;223;63009;-90
2023/10/27 02:34:57;;;;;;;0.50;0.50;;;;;;;8.59;100.00;94701.19;29395;209;63004;-93
2023/10/27 02:35:29;;;;;;;0.50;0.50;;;;;;;8.58;100.00;94704.22;29395;228;63008;-91
2023/10/27 02:36:01;;;;;;;0.50;0.50;;;;;;;8.56;100.00;94696.44;29395;210;63004;-92
2023/10/27 02:36:33;;;;;;;0.50;0.50;;;;;;;8.56;100.00;94699.16;29395;240;63009;-91
2023/10/27 02:37:04;;;;;;;0.50;0.50;;;;;;;8.55;100.00;94705.69;29395;205;63005;-89
2023/10/27 02:37:36;;;;;;;0.50;0.50;;;;;;;8.55;100.00;94699.47;29394;204;64014;-91
2023/10/27 02:38:08;;;;;;;0.50;0.50;;;;;;;8.54;100.00;94704.09;29395;240;63005;-91
2023/10/27 02:38:39;;;;;;;0.50;0.50;;;;;;;8.55;100.00;94700.28;29395;257;63009;-90
2023/10/27 02:39:11;;;;;;;0.50;0.50;;;;;;;8.56;100.00;94696.44;29395;202;63005;-91
2023/10/27 02:39:44;;;;;;;0.50;0.50;;;;;;;8.60;100.00;94701.97;29395;206;63009;-93
2023/10/27 02:40:15;;;;;;;0.50;0.50;;;;;;;8.62;100.00;94699.75;29395;228;63005;-93
2023/10/27 02:40:49;;;;;;;0.50;0.50;;;;;;;8.64;100.00;94698.28;29395;257;63018;-92
2023/10/27 02:41:20;;;;;;;0.50;0.50;;;;;;;8.62;100.00;94705.94;29395;208;63004;-91
2023/10/27 02:42:57;;;;;;;0.50;0.50;;;;;;;8.57;100.00;94702.66;88182;196;64004;-91
2023/10/27 02:43:28;;;;;;;0.50;0.50;;;;;;;8.54;100.00;94706.81;29394;261;64009;-90
2023/10/27 02:44:00;;;;;;;0.50;0.50;;;;;;;8.55;100.00;94704.88;29395;202;63005;-90